createdAt,value
2018-09-04T00:01:50.733Z,90.90
2018-09-04T00:04:25.088Z,85.47
2018-09-04T00:06:59.152Z,89.17
2018-09-04T00:09:31.707Z,74.60
2018-09-04T00:12:05.459Z,55.13
2018-09-04T00:14:38.292Z,56.27
2018-09-04T00:17:11.109Z,85.03
2018-09-04T00:19:43.581Z,64.17
2018-09-04T00:22:16.487Z,63.73
2018-09-04T00:24:50.821Z,79.30
2018-09-04T00:27:24.548Z,74.83
2018-09-04T00:29:58.889Z,66.90
2018-09-04T00:32:32.317Z,71.03
2018-09-04T00:35:05.308Z,72.10
2018-09-04T00:37:39.052Z,66.97
2018-09-04T00:40:11.714Z,95.03
2018-09-04T00:42:45.084Z,99.83
2018-09-04T00:45:17.753Z,135.67
2018-09-04T00:47:50.440Z,128.87
2018-09-04T00:50:23.736Z,167.75
2018-09-04T00:52:57.028Z,182.23
2018-09-04T00:55:30.757Z,192.73
2018-09-04T00:58:03.817Z,154.13
2018-09-04T01:00:37.906Z,138.77
2018-09-04T01:03:11.831Z,105.93
2018-09-04T01:05:44.861Z,122.07
2018-09-04T01:08:17.752Z,108.70
2018-09-04T01:10:50.411Z,103.43
2018-09-04T01:13:22.964Z,111.13
2018-09-04T01:15:56.174Z,136.90
2018-09-04T01:18:29.586Z,106.83
2018-09-04T01:21:02.082Z,139.67
2018-09-04T01:23:35.056Z,149.97
2018-09-04T01:26:07.776Z,170.33
2018-09-04T01:28:40.518Z,171.90
2018-09-04T01:31:13.432Z,185.13
2018-09-04T01:33:46.023Z,162.02
2018-09-04T01:36:18.627Z,140.33
2018-09-04T01:38:52.961Z,132.43
2018-09-04T01:41:26.009Z,132.83
2018-09-04T01:43:58.537Z,136.57
2018-09-04T01:46:32.424Z,165.43
2018-09-04T01:49:04.914Z,156.13
2018-09-04T01:51:37.569Z,146.82
2018-09-04T01:54:10.744Z,122.87
2018-09-04T01:56:43.308Z,135.30
2018-09-04T01:59:15.832Z,123.50
2018-09-04T02:01:49.470Z,136.57
2018-09-04T02:04:22.053Z,135.77
2018-09-04T02:06:54.836Z,150.33
2018-09-04T02:09:28.916Z,132.32
2018-09-04T02:12:01.473Z,155.20
2018-09-04T02:14:34.801Z,134.40
2018-09-04T02:17:07.657Z,115.57
2018-09-04T02:19:40.188Z,95.13
2018-09-04T02:22:12.579Z,116.67
2018-09-04T02:24:47.848Z,131.43
2018-09-04T02:27:20.385Z,132.87
2018-09-04T02:29:53.220Z,115.67
2018-09-04T02:32:26.190Z,102.17
2018-09-04T02:34:58.798Z,112.60
2018-09-04T02:37:31.277Z,133.57
2018-09-04T02:40:05.164Z,118.27
2018-09-04T02:42:37.682Z,115.90
2018-09-04T02:45:12.471Z,117.30
2018-09-04T02:47:45.291Z,122.97
2018-09-04T02:50:17.867Z,118.47
2018-09-04T02:52:50.693Z,107.90
2018-09-04T02:55:23.971Z,104.97
2018-09-04T02:57:56.593Z,106.05
2018-09-04T03:00:29.351Z,90.70
2018-09-04T03:03:02.256Z,99.70
2018-09-04T03:05:34.937Z,100.90
2018-09-04T03:08:07.588Z,91.37
2018-09-04T03:10:41.545Z,76.67
2018-09-04T03:13:13.944Z,96.57
2018-09-04T03:15:46.579Z,111.07
2018-09-04T03:18:19.568Z,105.37
2018-09-04T03:20:52.132Z,85.33
2018-09-04T03:23:25.009Z,85.97
2018-09-04T03:25:57.928Z,98.00
2018-09-04T03:28:30.437Z,108.80
2018-09-04T03:31:03.081Z,91.70
2018-09-04T03:33:36.013Z,88.40
2018-09-04T03:36:08.663Z,88.50
2018-09-04T03:38:41.160Z,91.33
2018-09-04T03:41:14.301Z,94.93
2018-09-04T03:43:46.735Z,85.77
2018-09-04T03:46:20.100Z,99.40
2018-09-04T03:48:53.213Z,113.90
2018-09-04T03:51:25.949Z,149.00
2018-09-04T03:53:58.749Z,137.30
2018-09-04T03:56:31.678Z,145.17
2018-09-04T03:59:04.286Z,136.47
2018-09-04T04:01:36.835Z,144.23
2018-09-04T04:04:09.792Z,136.33
2018-09-04T04:06:42.481Z,137.07
2018-09-04T04:09:15.180Z,142.97
2018-09-04T04:11:48.181Z,142.90
2018-09-04T04:14:21.723Z,139.57
2018-09-04T04:16:54.634Z,156.20
2018-09-04T04:19:27.509Z,181.68
2018-09-04T04:22:00.100Z,223.55
2018-09-04T04:24:32.697Z,188.17
2018-09-04T04:27:07.736Z,153.07
2018-09-04T04:29:40.709Z,126.67
2018-09-04T04:32:13.525Z,134.75
2018-09-04T04:34:48.598Z,135.20
2018-09-04T04:37:22.796Z,120.00
2018-09-04T04:39:56.595Z,105.40
2018-09-04T04:42:29.568Z,131.40
2018-09-04T04:45:03.764Z,152.97
2018-09-04T04:47:42.472Z,142.87
2018-09-04T04:50:15.060Z,141.17
2018-09-04T04:52:47.577Z,141.20
2018-09-04T04:55:20.204Z,129.60
2018-09-04T04:57:52.805Z,139.23
2018-09-04T05:00:25.558Z,165.50
2018-09-04T05:02:58.989Z,179.65
2018-09-04T05:05:31.814Z,162.03
2018-09-04T05:08:04.584Z,162.82
2018-09-04T05:10:39.467Z,192.45
2018-09-04T05:13:12.926Z,118.43
2018-09-04T05:15:45.819Z,139.13
2018-09-04T05:18:19.569Z,118.67
2018-09-04T05:20:53.616Z,120.73
2018-09-04T05:23:26.163Z,151.05
2018-09-04T05:26:01.269Z,146.83
2018-09-04T05:28:33.976Z,146.90
2018-09-04T05:31:06.916Z,105.17
2018-09-04T05:33:42.928Z,173.20
2018-09-04T05:36:16.325Z,162.93
2018-09-04T05:38:49.627Z,123.23
2018-09-04T05:41:22.229Z,183.23
2018-09-04T05:43:58.526Z,178.30
2018-09-04T05:46:38.954Z,168.67
2018-09-04T05:49:13.644Z,166.57
2018-09-04T05:51:49.129Z,187.00
2018-09-04T05:54:22.705Z,178.00
2018-09-04T05:56:56.729Z,196.60
2018-09-04T05:59:29.496Z,202.87
2018-09-04T06:02:02.426Z,178.93
2018-09-04T06:04:36.493Z,207.00
2018-09-04T06:07:10.627Z,190.70
2018-09-04T06:09:44.263Z,163.60
2018-09-04T06:12:17.973Z,176.35
2018-09-04T06:14:50.614Z,121.70
2018-09-04T06:17:23.958Z,96.97
2018-09-04T06:19:57.234Z,105.07
2018-09-04T06:22:29.802Z,113.27
2018-09-04T06:25:03.281Z,108.57
2018-09-04T06:27:35.815Z,125.10
2018-09-04T06:30:08.254Z,126.10
2018-09-04T06:32:41.189Z,146.17
2018-09-04T06:35:14.000Z,142.33
2018-09-04T06:37:46.583Z,150.37
2018-09-04T06:40:20.489Z,161.37
2018-09-04T06:42:54.307Z,148.77
2018-09-04T06:45:27.703Z,155.83
2018-09-04T06:48:04.451Z,133.77
2018-09-04T06:50:38.584Z,116.43
2018-09-04T06:53:13.729Z,123.47
2018-09-04T06:55:46.922Z,118.00
2018-09-04T06:58:26.792Z,128.03
2018-09-04T07:01:07.223Z,123.27
2018-09-04T07:03:40.753Z,113.07
2018-09-04T07:06:15.276Z,130.90
2018-09-04T07:08:47.967Z,117.83
2018-09-04T07:11:20.765Z,102.77
2018-09-04T07:13:57.220Z,113.67
2018-09-04T07:16:29.912Z,112.30
2018-09-04T07:19:02.556Z,106.40
2018-09-04T07:21:36.939Z,103.23
2018-09-04T07:24:09.492Z,99.00
2018-09-04T07:26:44.022Z,92.87
2018-09-04T07:29:17.217Z,89.33
2018-09-04T07:31:50.796Z,88.22
2018-09-04T07:34:25.740Z,80.73
2018-09-04T07:37:02.063Z,88.13
2018-09-04T07:39:38.284Z,89.57
2018-09-04T07:42:11.319Z,83.90
2018-09-04T07:44:46.205Z,77.65
2018-09-04T07:47:18.826Z,75.80
2018-09-04T07:49:54.403Z,68.53
2018-09-04T07:52:35.525Z,62.30
2018-09-04T07:55:09.798Z,57.15
2018-09-04T07:57:51.998Z,56.93
2018-09-04T08:00:29.264Z,50.53
2018-09-04T08:03:03.617Z,50.53
2018-09-04T08:05:42.169Z,47.07
2018-09-04T08:08:17.136Z,49.90
2018-09-04T08:10:53.448Z,51.03
2018-09-04T08:13:31.822Z,48.27
2018-09-04T08:16:05.949Z,47.83
2018-09-04T08:18:40.077Z,45.60
2018-09-04T08:21:14.529Z,48.97
2018-09-04T08:23:51.022Z,43.37
2018-09-04T08:26:24.921Z,43.90
2018-09-04T08:28:57.776Z,46.75
2018-09-04T08:31:30.348Z,45.73
2018-09-04T08:34:04.370Z,46.83
2018-09-04T08:36:38.633Z,43.93
2018-09-04T08:39:11.416Z,44.13
2018-09-04T08:41:45.079Z,46.00
2018-09-04T08:44:18.585Z,41.43
2018-09-04T08:46:51.179Z,32.87
2018-09-04T08:49:24.365Z,40.60
2018-09-04T08:51:59.313Z,39.53
2018-09-04T08:54:33.129Z,35.33
2018-09-04T08:57:06.772Z,37.57
2018-09-04T08:59:43.473Z,37.83
2018-09-04T09:02:16.494Z,34.33
2018-09-04T09:04:50.081Z,43.10
2018-09-04T09:07:22.508Z,34.03
2018-09-04T09:09:56.001Z,36.27
2018-09-04T09:12:29.301Z,34.73
2018-09-04T09:15:06.710Z,35.33
2018-09-04T09:17:39.919Z,36.80
2018-09-04T09:20:14.490Z,34.08
2018-09-04T09:22:47.210Z,31.97
2018-09-04T09:25:19.712Z,29.50
2018-09-04T09:27:53.275Z,29.40
2018-09-04T09:30:33.752Z,28.07
2018-09-04T09:33:10.185Z,32.50
2018-09-04T09:35:42.687Z,29.57
2018-09-04T09:38:17.664Z,28.63
2018-09-04T09:40:52.683Z,30.30
2018-09-04T09:43:27.324Z,32.75
2018-09-04T09:46:00.925Z,30.20
2018-09-04T09:48:40.031Z,30.17
2018-09-04T09:51:20.359Z,29.87
2018-09-04T09:53:54.219Z,29.67
2018-09-04T09:56:31.017Z,31.58
2018-09-04T09:59:04.241Z,26.43
2018-09-04T10:01:43.565Z,32.07
2018-09-04T10:04:21.789Z,28.30
2018-09-04T10:06:58.266Z,32.13
2018-09-04T10:09:33.521Z,31.27
2018-09-04T10:12:06.961Z,32.70
2018-09-04T10:14:39.719Z,33.72
2018-09-04T10:17:13.803Z,27.90
2018-09-04T10:19:47.355Z,28.63
2018-09-04T10:22:21.470Z,31.20
2018-09-04T10:24:59.096Z,26.43
2018-09-04T10:27:31.952Z,24.67
2018-09-04T10:30:12.744Z,26.77
2018-09-04T10:32:52.324Z,29.07
2018-09-04T10:35:24.853Z,26.47
2018-09-04T10:38:00.640Z,27.90
2018-09-04T10:40:44.513Z,30.13
2018-09-04T10:43:29.633Z,28.63
2018-09-04T10:46:07.560Z,26.57
2018-09-04T10:48:44.801Z,25.83
2018-09-04T10:51:22.242Z,28.20
2018-09-04T10:53:54.818Z,29.23
2018-09-04T10:56:29.940Z,24.87
2018-09-04T10:59:04.901Z,26.53
2018-09-04T11:01:39.558Z,27.07
2018-09-04T11:04:13.760Z,25.63
2018-09-04T11:06:48.432Z,26.77
2018-09-04T11:09:21.689Z,22.67
2018-09-04T11:11:55.577Z,23.40
2018-09-04T11:14:28.735Z,25.90
2018-09-04T11:17:01.337Z,24.70
2018-09-04T11:19:34.393Z,25.80
2018-09-04T11:22:10.133Z,25.97
2018-09-04T11:24:42.776Z,23.67
2018-09-04T11:27:16.117Z,24.10
2018-09-04T11:29:51.372Z,21.37
2018-09-04T11:32:25.376Z,22.07
2018-09-04T11:34:57.956Z,19.90
2018-09-04T11:37:30.697Z,19.20
2018-09-04T11:40:03.978Z,18.43
2018-09-04T11:42:36.814Z,18.83
2018-09-04T11:45:10.226Z,19.80
2018-09-04T11:47:45.040Z,20.23
2018-09-04T11:50:18.350Z,20.75
2018-09-04T11:52:51.916Z,23.63
2018-09-04T11:55:26.176Z,21.87
2018-09-04T11:57:59.013Z,21.60
2018-09-04T12:00:38.423Z,20.50
2018-09-04T12:03:13.177Z,18.57
2018-09-04T12:05:49.169Z,17.83
2018-09-04T12:08:21.553Z,21.40
2018-09-04T12:10:58.107Z,21.67
2018-09-04T12:13:32.037Z,20.07
2018-09-04T12:16:05.664Z,25.70
2018-09-04T12:18:39.779Z,21.57
2018-09-04T12:21:13.353Z,18.63
2018-09-04T12:23:46.785Z,23.65
2018-09-04T12:26:21.721Z,24.83
2018-09-04T12:28:54.964Z,23.23
2018-09-04T12:31:29.418Z,24.10
2018-09-04T12:34:02.404Z,22.80
2018-09-04T12:36:35.555Z,22.87
2018-09-04T12:39:08.575Z,23.67
2018-09-04T12:41:41.245Z,21.83
2018-09-04T12:44:13.984Z,22.85
2018-09-04T12:46:47.397Z,17.87
2018-09-04T12:49:20.092Z,17.23
2018-09-04T12:51:56.738Z,19.83
2018-09-04T12:54:32.456Z,18.70
2018-09-04T12:57:05.999Z,19.73
2018-09-04T12:59:43.707Z,18.93
2018-09-04T13:02:16.708Z,21.17
2018-09-04T13:04:49.339Z,22.62
2018-09-04T13:07:22.865Z,19.27
2018-09-04T13:09:56.004Z,19.13
2018-09-04T13:12:31.324Z,18.13
2018-09-04T13:15:08.888Z,19.40
2018-09-04T13:17:44.155Z,21.97
2018-09-04T13:20:24.225Z,20.87
2018-09-04T13:22:56.828Z,18.73
2018-09-04T13:25:30.813Z,17.60
2018-09-04T13:28:05.542Z,18.43
2018-09-04T13:30:41.897Z,19.00
2018-09-04T13:33:14.749Z,21.30
2018-09-04T13:35:49.949Z,21.53
2018-09-04T13:38:23.417Z,23.87
2018-09-04T13:41:09.750Z,23.10
2018-09-04T13:43:43.372Z,20.40
2018-09-04T13:46:17.676Z,22.43
2018-09-04T13:48:56.352Z,25.93
2018-09-04T13:51:29.488Z,25.00
2018-09-04T13:54:02.566Z,19.83
2018-09-04T13:56:37.440Z,21.03
2018-09-04T13:59:10.839Z,20.98
2018-09-04T14:01:47.245Z,20.12
2018-09-04T14:04:26.970Z,22.70
2018-09-04T14:07:04.048Z,19.40
2018-09-04T14:09:39.061Z,25.15
2018-09-04T14:12:15.183Z,21.53
2018-09-04T14:14:51.331Z,19.87
2018-09-04T14:17:29.219Z,20.83
2018-09-04T14:20:04.214Z,20.58
2018-09-04T14:22:37.949Z,19.90
2018-09-04T14:25:12.844Z,15.47
2018-09-04T14:27:47.380Z,17.13
2018-09-04T14:30:26.374Z,17.00
2018-09-04T14:33:01.738Z,18.93
2018-09-04T14:35:38.936Z,14.63
2018-09-04T14:38:13.367Z,21.10
2018-09-04T14:40:47.650Z,24.07
2018-09-04T14:43:20.436Z,34.90
2018-09-04T14:45:54.654Z,36.53
2018-09-04T14:48:27.345Z,49.37
2018-09-04T14:51:00.873Z,44.17
2018-09-04T14:53:34.792Z,44.87
2018-09-04T14:56:09.615Z,48.40
2018-09-04T14:58:43.024Z,48.07
2018-09-04T15:01:18.827Z,48.28
2018-09-04T15:03:52.828Z,42.77
2018-09-04T15:06:26.237Z,40.93
2018-09-04T15:09:00.040Z,44.00
2018-09-04T15:11:34.351Z,47.33
2018-09-04T15:14:08.965Z,44.17
2018-09-04T15:16:42.610Z,36.93
2018-09-04T15:19:15.489Z,47.03
2018-09-04T15:21:50.362Z,47.03
2018-09-04T15:24:23.545Z,41.97
2018-09-04T15:27:02.768Z,45.87
2018-09-04T15:29:40.253Z,49.90
2018-09-04T15:32:13.155Z,44.23
2018-09-04T15:34:48.554Z,36.67
2018-09-04T15:37:21.962Z,41.05
2018-09-04T15:39:55.802Z,41.17
2018-09-04T15:42:31.171Z,39.73
2018-09-04T15:45:06.353Z,37.97
2018-09-04T15:47:39.953Z,34.55
2018-09-04T15:50:13.415Z,28.87
2018-09-04T15:52:50.095Z,25.17
2018-09-04T15:55:23.549Z,23.87
2018-09-04T15:57:57.477Z,15.63
2018-09-04T16:00:30.653Z,16.93
2018-09-04T16:03:04.328Z,19.97
2018-09-04T16:05:41.028Z,19.97
2018-09-04T16:08:19.473Z,38.03
2018-09-04T16:10:57.670Z,42.40
2018-09-04T16:13:36.553Z,19.35
2018-09-04T16:16:18.067Z,17.10
2018-09-04T16:19:04.828Z,12.57
2018-09-04T16:21:41.342Z,14.17
2018-09-04T16:24:21.020Z,15.57
2018-09-04T16:26:54.641Z,15.03
2018-09-04T16:29:28.596Z,17.47
2018-09-04T16:32:01.257Z,19.53
2018-09-04T16:34:35.379Z,20.27
2018-09-04T16:37:09.396Z,20.60
2018-09-04T16:39:45.804Z,18.27
2018-09-04T16:42:21.176Z,22.77
2018-09-04T16:44:57.292Z,25.00
2018-09-04T16:47:30.531Z,25.10
2018-09-04T16:50:05.264Z,22.63
2018-09-04T16:52:47.621Z,22.67
2018-09-04T16:55:39.210Z,21.27
2018-09-04T16:58:12.498Z,19.33
2018-09-04T17:00:47.893Z,19.40
2018-09-04T17:03:21.722Z,18.47
2018-09-04T17:05:57.810Z,20.90
2018-09-04T17:08:35.717Z,23.73
2018-09-04T17:11:14.324Z,22.20
2018-09-04T17:13:56.457Z,23.70
2018-09-04T17:16:32.210Z,20.50
2018-09-04T17:19:10.257Z,19.70
2018-09-04T17:21:46.775Z,24.57
2018-09-04T17:24:25.249Z,22.27
2018-09-04T17:26:59.477Z,20.50
2018-09-04T17:29:37.876Z,22.87
2018-09-04T17:32:15.748Z,22.67
2018-09-04T17:35:01.049Z,20.47
2018-09-04T17:37:37.179Z,29.85
2018-09-04T17:40:12.985Z,27.17
2018-09-04T17:42:50.717Z,22.47
2018-09-04T17:45:29.066Z,24.80
2018-09-04T17:48:04.005Z,28.43
2018-09-04T17:50:41.246Z,28.10
2018-09-04T17:53:16.010Z,30.50
2018-09-04T17:55:50.021Z,27.40
2018-09-04T17:58:24.794Z,23.40
2018-09-04T18:00:58.444Z,23.60
2018-09-04T18:03:32.203Z,29.77
2018-09-04T18:06:10.514Z,30.27
2018-09-04T18:08:44.971Z,36.13
2018-09-04T18:11:20.899Z,34.80
2018-09-04T18:13:55.204Z,34.80
2018-09-04T18:16:28.789Z,37.47
2018-09-04T18:19:02.513Z,39.15
2018-09-04T18:21:37.620Z,37.30
2018-09-04T18:24:11.814Z,38.47
2018-09-04T18:26:48.366Z,39.90
2018-09-04T18:29:20.909Z,32.33
2018-09-04T18:31:55.574Z,42.62
2018-09-04T18:34:28.490Z,37.43
2018-09-04T18:37:03.634Z,34.70
2018-09-04T18:39:42.203Z,40.47
2018-09-04T18:42:16.656Z,45.00
2018-09-04T18:44:49.547Z,45.47
2018-09-04T18:47:24.768Z,45.33
2018-09-04T18:49:58.301Z,45.90
2018-09-04T18:52:32.138Z,48.03
2018-09-04T18:55:07.763Z,47.47
2018-09-04T18:57:41.031Z,54.23
2018-09-04T19:00:15.000Z,61.63
2018-09-04T19:02:50.093Z,66.33
2018-09-04T19:05:26.844Z,63.73
2018-09-04T19:08:01.786Z,61.10
2018-09-04T19:10:36.372Z,53.17
2018-09-04T19:13:11.337Z,49.90
2018-09-04T19:15:44.267Z,46.37
2018-09-04T19:18:17.645Z,53.83
2018-09-04T19:20:51.594Z,45.20
2018-09-04T19:23:28.033Z,56.43
2018-09-04T19:26:01.351Z,52.73
2018-09-04T19:28:35.197Z,52.60
2018-09-04T19:31:08.083Z,57.07
2018-09-04T19:33:41.685Z,63.33
2018-09-04T19:36:16.292Z,57.47
2018-09-04T19:38:51.692Z,58.40
2018-09-04T19:41:24.325Z,54.10
2018-09-04T19:43:58.637Z,46.70
2018-09-04T19:46:34.634Z,56.50
2018-09-04T19:49:10.784Z,44.47
2018-09-04T19:51:46.701Z,49.93
2018-09-04T19:54:23.600Z,51.83
2018-09-04T19:56:59.952Z,55.70
2018-09-04T19:59:33.667Z,65.47
2018-09-04T20:02:09.664Z,72.55
2018-09-04T20:04:45.200Z,66.63
2018-09-04T20:09:54.265Z,74.50
2018-09-04T20:12:28.250Z,62.20
2018-09-04T20:15:07.743Z,63.50
2018-09-04T20:17:41.070Z,51.77
2018-09-04T20:20:15.262Z,53.47
2018-09-04T20:22:50.287Z,68.17
2018-09-04T20:25:24.602Z,75.47
2018-09-04T20:27:57.426Z,62.83
2018-09-04T20:30:34.339Z,71.37
2018-09-04T20:33:09.208Z,88.62
2018-09-04T20:35:44.292Z,90.80
2018-09-04T20:38:18.577Z,79.97
2018-09-04T20:40:52.233Z,68.53
2018-09-04T20:43:25.156Z,64.95
2018-09-04T20:45:59.979Z,71.87
2018-09-04T20:48:34.026Z,64.97
2018-09-04T20:51:07.675Z,87.53
2018-09-04T20:53:42.107Z,80.70
2018-09-04T20:56:23.045Z,73.47
2018-09-04T20:59:18.922Z,79.83
2018-09-04T21:02:17.550Z,94.57
2018-09-04T21:05:15.292Z,97.18
2018-09-04T21:08:47.096Z,84.10
2018-09-04T21:11:20.489Z,73.33
2018-09-04T21:13:57.899Z,85.40
2018-09-04T21:16:36.229Z,86.03
2018-09-04T21:19:11.159Z,87.03
2018-09-04T21:21:46.326Z,86.60
2018-09-04T21:24:19.061Z,82.35
2018-09-04T21:26:53.087Z,80.70
2018-09-04T21:29:26.308Z,66.30
2018-09-04T21:32:00.701Z,63.37
2018-09-04T21:34:33.337Z,65.23
2018-09-04T21:37:08.344Z,74.03
2018-09-04T21:39:44.604Z,77.70
2018-09-04T21:42:18.665Z,89.83
2018-09-04T21:44:52.644Z,88.63
2018-09-04T21:47:26.828Z,104.57
2018-09-04T21:49:59.484Z,104.47
2018-09-04T21:52:34.192Z,89.47
2018-09-04T21:55:08.257Z,87.37
2018-09-04T21:57:42.273Z,77.60
2018-09-04T22:00:23.890Z,85.03
2018-09-04T22:02:58.043Z,77.70
2018-09-04T22:05:32.887Z,58.97
2018-09-04T22:08:07.125Z,74.37
2018-09-04T22:10:44.036Z,98.32
2018-09-04T22:13:18.215Z,86.17
2018-09-04T22:15:51.935Z,71.63
2018-09-04T22:18:27.499Z,59.17
2018-09-04T22:21:08.769Z,76.53
2018-09-04T22:23:44.588Z,78.77
2018-09-04T22:26:19.565Z,88.33
2018-09-04T22:28:53.727Z,77.20
2018-09-04T22:31:26.360Z,79.00
2018-09-04T22:33:59.475Z,91.27
2018-09-04T22:36:33.259Z,102.30
2018-09-04T22:39:08.826Z,101.20
2018-09-04T22:41:42.022Z,89.43
2018-09-04T22:44:15.585Z,94.43
2018-09-04T22:46:49.318Z,77.47
2018-09-04T22:49:21.992Z,74.43
2018-09-04T22:52:02.097Z,98.47
2018-09-04T22:54:36.952Z,83.90
2018-09-04T22:57:12.717Z,105.87
2018-09-04T22:59:46.575Z,101.33
2018-09-04T23:02:20.703Z,100.00
2018-09-04T23:04:53.412Z,96.20
2018-09-04T23:07:26.779Z,108.43
2018-09-04T23:09:59.408Z,97.57
2018-09-04T23:12:32.788Z,109.37
2018-09-04T23:15:07.037Z,105.23
2018-09-04T23:17:39.801Z,120.70
2018-09-04T23:20:12.757Z,134.83
2018-09-04T23:22:46.256Z,159.50
2018-09-04T23:25:18.900Z,166.87
2018-09-04T23:27:51.652Z,190.37
2018-09-04T23:30:26.269Z,214.17
2018-09-04T23:33:00.993Z,183.50
2018-09-04T23:35:34.162Z,172.60
2018-09-04T23:38:09.052Z,176.07
2018-09-04T23:40:42.304Z,155.80
2018-09-04T23:43:14.956Z,118.90
2018-09-04T23:45:48.849Z,197.27
2018-09-04T23:48:21.548Z,213.27
2018-09-04T23:50:54.849Z,170.57
2018-09-04T23:53:28.860Z,141.37
2018-09-04T23:56:01.645Z,121.17
2018-09-04T23:58:36.636Z,222.63
